sensor_id;sensor_type;location;lat;lon;timestamp;temperature;humidity
22112;DHT22;11222;50.872;4.312;2023-04-25T00:02:18;9.90;99.90
22112;DHT22;11222;50.872;4.312;2023-04-25T00:04:44;9.90;99.90
22112;DHT22;11222;50.872;4.312;2023-04-25T00:07:10;9.90;99.90
22112;DHT22;11222;50.872;4.312;2023-04-25T00:09:36;10.00;99.90
22112;DHT22;11222;50.872;4.312;2023-04-25T00:12:02;9.90;99.90
22112;DHT22;11222;50.872;4.312;2023-04-25T00:14:28;9.90;99.90
22112;DHT22;11222;50.872;4.312;2023-04-25T00:16:54;9.90;99.90
22112;DHT22;11222;50.872;4.312;2023-04-25T00:19:20;9.80;99.90
22112;DHT22;11222;50.872;4.312;2023-04-25T00:21:45;9.80;99.90
22112;DHT22;11222;50.872;4.312;2023-04-25T00:24:12;9.80;99.90
22112;DHT22;11222;50.872;4.312;2023-04-25T00:26:38;9.90;99.90
22112;DHT22;11222;50.872;4.312;2023-04-25T00:29:03;9.90;99.90
22112;DHT22;11222;50.872;4.312;2023-04-25T00:31:30;9.90;99.90
22112;DHT22;11222;50.872;4.312;2023-04-25T00:33:55;10.00;99.90
22112;DHT22;11222;50.872;4.312;2023-04-25T00:36:21;10.00;99.90
22112;DHT22;11222;50.872;4.312;2023-04-25T00:38:47;10.00;99.90
22112;DHT22;11222;50.872;4.312;2023-04-25T00:41:13;10.10;99.90
22112;DHT22;11222;50.872;4.312;2023-04-25T00:43:39;10.10;99.90
22112;DHT22;11222;50.872;4.312;2023-04-25T00:46:05;10.10;99.90
22112;DHT22;11222;50.872;4.312;2023-04-25T00:48:31;10.00;99.90
22112;DHT22;11222;50.872;4.312;2023-04-25T00:50:58;10.00;99.90
22112;DHT22;11222;50.872;4.312;2023-04-25T00:53:25;9.90;99.90
22112;DHT22;11222;50.872;4.312;2023-04-25T00:55:51;9.90;99.90
22112;DHT22;11222;50.872;4.312;2023-04-25T00:58:18;9.80;99.90
22112;DHT22;11222;50.872;4.312;2023-04-25T01:00:48;9.70;99.90
22112;DHT22;11222;50.872;4.312;2023-04-25T01:03:16;9.70;99.90
22112;DHT22;11222;50.872;4.312;2023-04-25T01:05:43;9.60;99.90
22112;DHT22;11222;50.872;4.312;2023-04-25T01:08:09;9.60;99.90
22112;DHT22;11222;50.872;4.312;2023-04-25T01:10:35;9.60;99.90
22112;DHT22;11222;50.872;4.312;2023-04-25T01:13:01;9.60;99.90
22112;DHT22;11222;50.872;4.312;2023-04-25T01:15:27;9.60;99.90
22112;DHT22;11222;50.872;4.312;2023-04-25T01:17:53;9.70;99.90
22112;DHT22;11222;50.872;4.312;2023-04-25T01:20:21;9.70;99.90
22112;DHT22;11222;50.872;4.312;2023-04-25T01:22:49;9.50;99.90
22112;DHT22;11222;50.872;4.312;2023-04-25T01:25:15;9.50;99.90
22112;DHT22;11222;50.872;4.312;2023-04-25T01:27:41;9.50;99.90
22112;DHT22;11222;50.872;4.312;2023-04-25T01:30:07;9.50;99.90
22112;DHT22;11222;50.872;4.312;2023-04-25T01:32:34;9.60;99.90
22112;DHT22;11222;50.872;4.312;2023-04-25T01:35:12;9.50;99.90
22112;DHT22;11222;50.872;4.312;2023-04-25T01:37:42;9.50;99.90
22112;DHT22;11222;50.872;4.312;2023-04-25T01:40:09;9.40;99.90
22112;DHT22;11222;50.872;4.312;2023-04-25T01:42:37;9.30;99.90
22112;DHT22;11222;50.872;4.312;2023-04-25T01:45:04;9.30;99.90
22112;DHT22;11222;50.872;4.312;2023-04-25T01:47:31;9.30;99.90
22112;DHT22;11222;50.872;4.312;2023-04-25T01:49:56;9.30;99.90
22112;DHT22;11222;50.872;4.312;2023-04-25T01:52:22;9.20;99.90
22112;DHT22;11222;50.872;4.312;2023-04-25T01:54:49;9.20;99.90
22112;DHT22;11222;50.872;4.312;2023-04-25T01:57:16;9.30;99.90
22112;DHT22;11222;50.872;4.312;2023-04-25T01:59:43;9.30;99.90
22112;DHT22;11222;50.872;4.312;2023-04-25T02:02:09;9.20;99.90
22112;DHT22;11222;50.872;4.312;2023-04-25T02:04:35;9.20;99.90
22112;DHT22;11222;50.872;4.312;2023-04-25T02:07:00;9.20;99.90
22112;DHT22;11222;50.872;4.312;2023-04-25T02:09:26;9.20;99.90
22112;DHT22;11222;50.872;4.312;2023-04-25T02:11:52;9.20;99.90
22112;DHT22;11222;50.872;4.312;2023-04-25T02:14:18;9.20;99.90
22112;DHT22;11222;50.872;4.312;2023-04-25T02:16:44;9.10;99.90
22112;DHT22;11222;50.872;4.312;2023-04-25T02:19:10;9.10;99.90
22112;DHT22;11222;50.872;4.312;2023-04-25T02:21:36;9.10;99.90
22112;DHT22;11222;50.872;4.312;2023-04-25T02:24:03;9.20;99.90
22112;DHT22;11222;50.872;4.312;2023-04-25T02:26:29;9.20;99.90
22112;DHT22;11222;50.872;4.312;2023-04-25T02:28:56;9.10;99.90
22112;DHT22;11222;50.872;4.312;2023-04-25T02:31:22;9.10;99.90
22112;DHT22;11222;50.872;4.312;2023-04-25T02:33:48;9.20;99.90
22112;DHT22;11222;50.872;4.312;2023-04-25T02:36:13;9.10;99.90
22112;DHT22;11222;50.872;4.312;2023-04-25T02:38:40;9.10;99.90
22112;DHT22;11222;50.872;4.312;2023-04-25T02:41:06;9.20;99.90
22112;DHT22;11222;50.872;4.312;2023-04-25T02:43:31;9.10;99.90
22112;DHT22;11222;50.872;4.312;2023-04-25T02:45:57;9.00;99.90
22112;DHT22;11222;50.872;4.312;2023-04-25T02:48:23;9.00;99.90
22112;DHT22;11222;50.872;4.312;2023-04-25T02:50:48;9.00;99.90
22112;DHT22;11222;50.872;4.312;2023-04-25T02:53:14;8.90;99.90
22112;DHT22;11222;50.872;4.312;2023-04-25T02:55:39;8.80;99.90
22112;DHT22;11222;50.872;4.312;2023-04-25T02:58:05;8.80;99.90
22112;DHT22;11222;50.872;4.312;2023-04-25T03:00:31;8.80;99.90
22112;DHT22;11222;50.872;4.312;2023-04-25T03:02:57;8.90;99.90
22112;DHT22;11222;50.872;4.312;2023-04-25T03:05:22;9.00;99.90
22112;DHT22;11222;50.872;4.312;2023-04-25T03:07:48;8.90;99.90
22112;DHT22;11222;50.872;4.312;2023-04-25T03:10:13;9.00;99.90
22112;DHT22;11222;50.872;4.312;2023-04-25T03:12:39;8.80;99.90
22112;DHT22;11222;50.872;4.312;2023-04-25T03:15:05;8.80;99.90
22112;DHT22;11222;50.872;4.312;2023-04-25T03:17:31;8.70;99.90
22112;DHT22;11222;50.872;4.312;2023-04-25T03:19:57;8.70;99.90
22112;DHT22;11222;50.872;4.312;2023-04-25T03:22:23;8.70;99.90
22112;DHT22;11222;50.872;4.312;2023-04-25T03:24:50;8.70;99.90
22112;DHT22;11222;50.872;4.312;2023-04-25T03:27:16;8.80;99.90
22112;DHT22;11222;50.872;4.312;2023-04-25T03:29:41;8.70;99.90
22112;DHT22;11222;50.872;4.312;2023-04-25T03:32:07;8.50;99.90
22112;DHT22;11222;50.872;4.312;2023-04-25T03:34:33;8.40;99.90
22112;DHT22;11222;50.872;4.312;2023-04-25T03:36:59;8.50;99.90
22112;DHT22;11222;50.872;4.312;2023-04-25T03:39:25;8.50;99.90
22112;DHT22;11222;50.872;4.312;2023-04-25T03:41:50;8.40;99.90
22112;DHT22;11222;50.872;4.312;2023-04-25T03:44:16;8.50;99.90
22112;DHT22;11222;50.872;4.312;2023-04-25T03:46:42;8.50;99.90
22112;DHT22;11222;50.872;4.312;2023-04-25T03:49:07;8.50;99.90
22112;DHT22;11222;50.872;4.312;2023-04-25T03:51:33;8.60;99.90
22112;DHT22;11222;50.872;4.312;2023-04-25T03:53:59;8.60;99.90
22112;DHT22;11222;50.872;4.312;2023-04-25T03:56:24;8.60;99.90
22112;DHT22;11222;50.872;4.312;2023-04-25T03:58:50;8.60;99.90
22112;DHT22;11222;50.872;4.312;2023-04-25T04:01:16;8.60;99.90
22112;DHT22;11222;50.872;4.312;2023-04-25T04:03:41;8.70;99.90
22112;DHT22;11222;50.872;4.312;2023-04-25T04:06:07;8.80;99.90
22112;DHT22;11222;50.872;4.312;2023-04-25T04:08:34;8.90;99.90
22112;DHT22;11222;50.872;4.312;2023-04-25T04:11:00;9.00;99.90
22112;DHT22;11222;50.872;4.312;2023-04-25T04:13:26;9.00;99.90
22112;DHT22;11222;50.872;4.312;2023-04-25T04:15:52;9.00;99.90
22112;DHT22;11222;50.872;4.312;2023-04-25T04:18:18;9.00;99.90
22112;DHT22;11222;50.872;4.312;2023-04-25T04:20:44;9.00;99.90
22112;DHT22;11222;50.872;4.312;2023-04-25T04:23:09;9.10;99.90
22112;DHT22;11222;50.872;4.312;2023-04-25T04:25:36;9.10;99.90
22112;DHT22;11222;50.872;4.312;2023-04-25T04:28:02;9.00;99.90
22112;DHT22;11222;50.872;4.312;2023-04-25T04:30:28;8.90;99.90
22112;DHT22;11222;50.872;4.312;2023-04-25T04:32:57;8.80;99.90
22112;DHT22;11222;50.872;4.312;2023-04-25T04:35:23;8.80;99.90
22112;DHT22;11222;50.872;4.312;2023-04-25T04:37:49;8.70;99.90
22112;DHT22;11222;50.872;4.312;2023-04-25T04:40:15;8.70;99.90
22112;DHT22;11222;50.872;4.312;2023-04-25T04:42:42;8.70;99.90
22112;DHT22;11222;50.872;4.312;2023-04-25T04:45:08;8.80;99.90
22112;DHT22;11222;50.872;4.312;2023-04-25T04:47:35;8.60;99.90
22112;DHT22;11222;50.872;4.312;2023-04-25T04:50:03;8.50;99.90
22112;DHT22;11222;50.872;4.312;2023-04-25T04:52:29;8.50;99.90
22112;DHT22;11222;50.872;4.312;2023-04-25T04:54:55;8.40;99.90
22112;DHT22;11222;50.872;4.312;2023-04-25T04:57:21;8.30;99.90
22112;DHT22;11222;50.872;4.312;2023-04-25T04:59:46;8.20;99.90
22112;DHT22;11222;50.872;4.312;2023-04-25T05:02:12;8.20;99.90
22112;DHT22;11222;50.872;4.312;2023-04-25T05:04:38;8.20;99.90
22112;DHT22;11222;50.872;4.312;2023-04-25T05:07:03;8.20;99.90
22112;DHT22;11222;50.872;4.312;2023-04-25T05:09:29;8.20;99.90
22112;DHT22;11222;50.872;4.312;2023-04-25T05:11:55;8.30;99.90
22112;DHT22;11222;50.872;4.312;2023-04-25T05:14:21;8.30;99.90
22112;DHT22;11222;50.872;4.312;2023-04-25T05:16:48;8.40;99.90
22112;DHT22;11222;50.872;4.312;2023-04-25T05:19:13;8.30;99.90
22112;DHT22;11222;50.872;4.312;2023-04-25T05:21:39;8.40;99.90
22112;DHT22;11222;50.872;4.312;2023-04-25T05:24:05;8.50;99.90
22112;DHT22;11222;50.872;4.312;2023-04-25T05:26:30;8.60;99.90
22112;DHT22;11222;50.872;4.312;2023-04-25T05:28:59;8.50;99.90
22112;DHT22;11222;50.872;4.312;2023-04-25T05:31:25;8.60;99.90
22112;DHT22;11222;50.872;4.312;2023-04-25T05:33:52;8.70;99.90
22112;DHT22;11222;50.872;4.312;2023-04-25T05:36:20;8.60;99.90
22112;DHT22;11222;50.872;4.312;2023-04-25T05:38:46;8.60;99.90
22112;DHT22;11222;50.872;4.312;2023-04-25T05:41:12;8.80;99.90
22112;DHT22;11222;50.872;4.312;2023-04-25T05:43:38;8.90;99.90
22112;DHT22;11222;50.872;4.312;2023-04-25T05:46:05;8.90;99.90
22112;DHT22;11222;50.872;4.312;2023-04-25T05:48:31;8.80;99.90
22112;DHT22;11222;50.872;4.312;2023-04-25T05:50:56;8.90;99.90
22112;DHT22;11222;50.872;4.312;2023-04-25T05:53:22;8.80;99.90
22112;DHT22;11222;50.872;4.312;2023-04-25T05:55:48;8.90;99.90
22112;DHT22;11222;50.872;4.312;2023-04-25T05:58:13;9.00;99.90
22112;DHT22;11222;50.872;4.312;2023-04-25T06:00:39;9.00;99.90
22112;DHT22;11222;50.872;4.312;2023-04-25T06:03:06;8.90;99.90
22112;DHT22;11222;50.872;4.312;2023-04-25T06:05:35;9.00;99.90
22112;DHT22;11222;50.872;4.312;2023-04-25T06:08:00;9.10;99.90
22112;DHT22;11222;50.872;4.312;2023-04-25T06:10:26;9.10;99.90
22112;DHT22;11222;50.872;4.312;2023-04-25T06:12:52;8.90;99.90
22112;DHT22;11222;50.872;4.312;2023-04-25T06:15:17;9.00;99.90
22112;DHT22;11222;50.872;4.312;2023-04-25T06:17:43;9.10;99.90
22112;DHT22;11222;50.872;4.312;2023-04-25T06:20:09;9.20;99.90
22112;DHT22;11222;50.872;4.312;2023-04-25T06:22:35;9.20;99.90
22112;DHT22;11222;50.872;4.312;2023-04-25T06:25:01;9.30;99.90
22112;DHT22;11222;50.872;4.312;2023-04-25T06:27:29;9.50;99.90
22112;DHT22;11222;50.872;4.312;2023-04-25T06:29:55;9.50;99.90
22112;DHT22;11222;50.872;4.312;2023-04-25T06:32:20;9.50;99.90
22112;DHT22;11222;50.872;4.312;2023-04-25T06:34:46;9.40;99.90
22112;DHT22;11222;50.872;4.312;2023-04-25T06:37:12;9.40;99.90
22112;DHT22;11222;50.872;4.312;2023-04-25T06:39:37;9.30;99.90
22112;DHT22;11222;50.872;4.312;2023-04-25T06:42:03;9.40;99.90
22112;DHT22;11222;50.872;4.312;2023-04-25T06:44:29;9.50;99.90
22112;DHT22;11222;50.872;4.312;2023-04-25T06:46:55;9.60;99.90
22112;DHT22;11222;50.872;4.312;2023-04-25T06:49:21;9.70;99.90
22112;DHT22;11222;50.872;4.312;2023-04-25T06:51:46;9.90;99.90
22112;DHT22;11222;50.872;4.312;2023-04-25T06:54:12;10.00;99.90
22112;DHT22;11222;50.872;4.312;2023-04-25T06:56:37;10.00;99.90
22112;DHT22;11222;50.872;4.312;2023-04-25T06:59:03;10.00;99.90
22112;DHT22;11222;50.872;4.312;2023-04-25T07:01:29;10.10;99.90
22112;DHT22;11222;50.872;4.312;2023-04-25T07:03:55;10.00;99.90
22112;DHT22;11222;50.872;4.312;2023-04-25T07:06:20;9.80;99.90
22112;DHT22;11222;50.872;4.312;2023-04-25T07:08:46;9.80;99.90
22112;DHT22;11222;50.872;4.312;2023-04-25T07:11:12;9.80;99.90
22112;DHT22;11222;50.872;4.312;2023-04-25T07:13:37;9.80;99.90
22112;DHT22;11222;50.872;4.312;2023-04-25T07:16:03;9.80;99.90
22112;DHT22;11222;50.872;4.312;2023-04-25T07:18:29;9.90;99.90
22112;DHT22;11222;50.872;4.312;2023-04-25T07:20:55;9.90;99.90
22112;DHT22;11222;50.872;4.312;2023-04-25T07:23:20;9.90;99.90
22112;DHT22;11222;50.872;4.312;2023-04-25T07:25:46;9.90;99.90
22112;DHT22;11222;50.872;4.312;2023-04-25T07:28:12;9.60;99.90
22112;DHT22;11222;50.872;4.312;2023-04-25T07:30:37;9.50;99.90
22112;DHT22;11222;50.872;4.312;2023-04-25T07:33:03;9.40;99.90
22112;DHT22;11222;50.872;4.312;2023-04-25T07:35:29;9.60;99.90
22112;DHT22;11222;50.872;4.312;2023-04-25T07:37:55;9.90;99.90
22112;DHT22;11222;50.872;4.312;2023-04-25T07:40:21;9.90;99.90
22112;DHT22;11222;50.872;4.312;2023-04-25T07:42:46;10.00;99.90
22112;DHT22;11222;50.872;4.312;2023-04-25T07:45:12;9.90;99.90
22112;DHT22;11222;50.872;4.312;2023-04-25T07:47:38;10.20;99.90
22112;DHT22;11222;50.872;4.312;2023-04-25T07:50:04;10.10;99.90
22112;DHT22;11222;50.872;4.312;2023-04-25T07:52:31;10.10;99.90
22112;DHT22;11222;50.872;4.312;2023-04-25T07:54:56;10.10;99.90
22112;DHT22;11222;50.872;4.312;2023-04-25T07:57:24;10.50;99.90
22112;DHT22;11222;50.872;4.312;2023-04-25T07:59:49;10.80;99.90
22112;DHT22;11222;50.872;4.312;2023-04-25T08:02:15;10.90;99.90
22112;DHT22;11222;50.872;4.312;2023-04-25T08:04:41;11.00;99.90
22112;DHT22;11222;50.872;4.312;2023-04-25T08:07:06;11.00;99.90
22112;DHT22;11222;50.872;4.312;2023-04-25T08:09:32;11.00;99.90
22112;DHT22;11222;50.872;4.312;2023-04-25T08:12:02;11.10;99.90
22112;DHT22;11222;50.872;4.312;2023-04-25T08:14:28;11.20;99.90
22112;DHT22;11222;50.872;4.312;2023-04-25T08:16:56;11.40;99.90
22112;DHT22;11222;50.872;4.312;2023-04-25T08:19:22;11.70;99.90
22112;DHT22;11222;50.872;4.312;2023-04-25T08:21:47;12.10;99.90
22112;DHT22;11222;50.872;4.312;2023-04-25T08:24:13;12.10;99.90
22112;DHT22;11222;50.872;4.312;2023-04-25T08:26:39;12.40;99.90
22112;DHT22;11222;50.872;4.312;2023-04-25T08:29:06;12.20;99.90
22112;DHT22;11222;50.872;4.312;2023-04-25T08:31:31;12.30;99.90
22112;DHT22;11222;50.872;4.312;2023-04-25T08:33:57;12.10;99.90
22112;DHT22;11222;50.872;4.312;2023-04-25T08:36:23;12.30;99.90
22112;DHT22;11222;50.872;4.312;2023-04-25T08:38:49;13.30;99.90
22112;DHT22;11222;50.872;4.312;2023-04-25T08:41:15;14.40;99.90
22112;DHT22;11222;50.872;4.312;2023-04-25T08:43:42;16.00;99.90
22112;DHT22;11222;50.872;4.312;2023-04-25T08:46:09;16.70;99.90
22112;DHT22;11222;50.872;4.312;2023-04-25T08:48:36;17.70;99.90
22112;DHT22;11222;50.872;4.312;2023-04-25T08:51:05;17.60;99.90
22112;DHT22;11222;50.872;4.312;2023-04-25T08:53:33;17.90;99.90
22112;DHT22;11222;50.872;4.312;2023-04-25T08:56:00;16.60;99.90
22112;DHT22;11222;50.872;4.312;2023-04-25T08:58:29;15.50;99.90
22112;DHT22;11222;50.872;4.312;2023-04-25T09:00:56;14.70;99.90
22112;DHT22;11222;50.872;4.312;2023-04-25T09:03:22;14.30;99.90
22112;DHT22;11222;50.872;4.312;2023-04-25T09:05:49;13.70;99.90
22112;DHT22;11222;50.872;4.312;2023-04-25T09:08:15;13.40;99.90
22112;DHT22;11222;50.872;4.312;2023-04-25T09:10:41;13.10;99.90
22112;DHT22;11222;50.872;4.312;2023-04-25T09:13:17;12.50;99.90
22112;DHT22;11222;50.872;4.312;2023-04-25T09:15:57;12.10;99.90
22112;DHT22;11222;50.872;4.312;2023-04-25T09:20:51;11.00;99.90
22112;DHT22;11222;50.872;4.312;2023-04-25T09:23:16;10.80;99.90
22112;DHT22;11222;50.872;4.312;2023-04-25T09:25:49;11.00;99.90
22112;DHT22;11222;50.872;4.312;2023-04-25T09:28:15;11.20;99.90
22112;DHT22;11222;50.872;4.312;2023-04-25T09:30:42;11.50;99.90
22112;DHT22;11222;50.872;4.312;2023-04-25T09:33:11;11.80;99.90
22112;DHT22;11222;50.872;4.312;2023-04-25T09:35:42;12.30;99.90
22112;DHT22;11222;50.872;4.312;2023-04-25T09:38:12;13.40;99.90
22112;DHT22;11222;50.872;4.312;2023-04-25T09:40:42;15.10;99.90
22112;DHT22;11222;50.872;4.312;2023-04-25T09:43:18;16.90;99.90
22112;DHT22;11222;50.872;4.312;2023-04-25T09:45:44;18.10;99.90
22112;DHT22;11222;50.872;4.312;2023-04-25T09:48:12;19.20;99.90
22112;DHT22;11222;50.872;4.312;2023-04-25T09:50:38;20.20;99.90
22112;DHT22;11222;50.872;4.312;2023-04-25T09:53:05;21.40;97.30
22112;DHT22;11222;50.872;4.312;2023-04-25T09:55:34;21.70;93.30
22112;DHT22;11222;50.872;4.312;2023-04-25T09:58:04;21.10;91.10
22112;DHT22;11222;50.872;4.312;2023-04-25T10:00:32;19.00;93.30
22112;DHT22;11222;50.872;4.312;2023-04-25T10:03:01;18.70;92.60
22112;DHT22;11222;50.872;4.312;2023-04-25T10:05:32;16.80;94.80
22112;DHT22;11222;50.872;4.312;2023-04-25T10:08:03;17.30;95.60
22112;DHT22;11222;50.872;4.312;2023-04-25T10:10:32;18.50;94.30
22112;DHT22;11222;50.872;4.312;2023-04-25T10:13:05;20.40;91.00
22112;DHT22;11222;50.872;4.312;2023-04-25T10:15:34;21.20;84.80
22112;DHT22;11222;50.872;4.312;2023-04-25T10:18:01;21.50;78.70
22112;DHT22;11222;50.872;4.312;2023-04-25T10:20:27;21.70;76.70
22112;DHT22;11222;50.872;4.312;2023-04-25T10:22:54;22.20;74.30
22112;DHT22;11222;50.872;4.312;2023-04-25T10:25:22;21.60;75.50
22112;DHT22;11222;50.872;4.312;2023-04-25T10:27:51;21.50;76.30
22112;DHT22;11222;50.872;4.312;2023-04-25T10:30:18;21.00;75.10
22112;DHT22;11222;50.872;4.312;2023-04-25T10:32:44;21.00;74.60
22112;DHT22;11222;50.872;4.312;2023-04-25T10:35:18;21.00;74.00
22112;DHT22;11222;50.872;4.312;2023-04-25T10:38:10;19.00;77.60
22112;DHT22;11222;50.872;4.312;2023-04-25T10:40:36;17.70;80.40
22112;DHT22;11222;50.872;4.312;2023-04-25T10:45:52;15.20;90.30
22112;DHT22;11222;50.872;4.312;2023-04-25T10:48:29;13.90;93.00
22112;DHT22;11222;50.872;4.312;2023-04-25T10:51:11;13.20;95.80
22112;DHT22;11222;50.872;4.312;2023-04-25T10:53:37;12.70;98.40
22112;DHT22;11222;50.872;4.312;2023-04-25T10:56:19;12.20;99.90
22112;DHT22;11222;50.872;4.312;2023-04-25T10:58:45;12.00;99.90
22112;DHT22;11222;50.872;4.312;2023-04-25T11:01:16;11.80;99.90
22112;DHT22;11222;50.872;4.312;2023-04-25T11:03:44;11.80;99.90
22112;DHT22;11222;50.872;4.312;2023-04-25T11:06:31;11.90;99.90
22112;DHT22;11222;50.872;4.312;2023-04-25T11:09:02;11.80;99.90
22112;DHT22;11222;50.872;4.312;2023-04-25T11:11:29;11.90;99.90
22112;DHT22;11222;50.872;4.312;2023-04-25T11:13:55;12.20;99.90
22112;DHT22;11222;50.872;4.312;2023-04-25T11:16:24;14.20;99.90
22112;DHT22;11222;50.872;4.312;2023-04-25T11:18:50;15.90;99.90
22112;DHT22;11222;50.872;4.312;2023-04-25T11:21:16;15.80;99.90
22112;DHT22;11222;50.872;4.312;2023-04-25T11:23:45;16.30;99.90
22112;DHT22;11222;50.872;4.312;2023-04-25T11:26:12;15.10;99.90
22112;DHT22;11222;50.872;4.312;2023-04-25T11:28:38;14.90;99.90
22112;DHT22;11222;50.872;4.312;2023-04-25T11:31:04;14.60;99.90
22112;DHT22;11222;50.872;4.312;2023-04-25T11:33:30;14.30;99.90
22112;DHT22;11222;50.872;4.312;2023-04-25T11:35:56;13.80;99.90
22112;DHT22;11222;50.872;4.312;2023-04-25T11:38:22;13.50;99.90
22112;DHT22;11222;50.872;4.312;2023-04-25T11:40:55;13.40;99.90
22112;DHT22;11222;50.872;4.312;2023-04-25T11:43:21;13.50;99.90
22112;DHT22;11222;50.872;4.312;2023-04-25T11:45:51;13.60;99.90
22112;DHT22;11222;50.872;4.312;2023-04-25T11:48:18;13.50;99.90
22112;DHT22;11222;50.872;4.312;2023-04-25T11:50:44;14.60;99.90
22112;DHT22;11222;50.872;4.312;2023-04-25T11:53:10;14.80;99.90
22112;DHT22;11222;50.872;4.312;2023-04-25T11:55:37;15.60;99.90
22112;DHT22;11222;50.872;4.312;2023-04-25T11:58:03;15.90;99.90
22112;DHT22;11222;50.872;4.312;2023-04-25T12:00:30;16.20;99.90
22112;DHT22;11222;50.872;4.312;2023-04-25T12:02:57;15.80;99.90
22112;DHT22;11222;50.872;4.312;2023-04-25T12:05:30;15.40;99.90
22112;DHT22;11222;50.872;4.312;2023-04-25T12:07:56;15.10;99.90
22112;DHT22;11222;50.872;4.312;2023-04-25T12:10:24;14.60;99.90
22112;DHT22;11222;50.872;4.312;2023-04-25T12:12:51;14.80;99.90
22112;DHT22;11222;50.872;4.312;2023-04-25T12:15:24;14.60;99.90
22112;DHT22;11222;50.872;4.312;2023-04-25T12:17:52;14.20;99.90
22112;DHT22;11222;50.872;4.312;2023-04-25T12:20:26;13.90;99.90
22112;DHT22;11222;50.872;4.312;2023-04-25T12:22:52;13.20;99.90
22112;DHT22;11222;50.872;4.312;2023-04-25T12:25:34;12.90;99.90
22112;DHT22;11222;50.872;4.312;2023-04-25T12:28:20;12.80;99.90
22112;DHT22;11222;50.872;4.312;2023-04-25T12:31:06;13.20;99.90
22112;DHT22;11222;50.872;4.312;2023-04-25T12:33:36;12.80;99.90
22112;DHT22;11222;50.872;4.312;2023-04-25T12:36:04;12.60;99.90
22112;DHT22;11222;50.872;4.312;2023-04-25T12:38:38;12.40;99.90
22112;DHT22;11222;50.872;4.312;2023-04-25T12:41:05;12.70;99.90
22112;DHT22;11222;50.872;4.312;2023-04-25T12:43:31;12.70;99.90
22112;DHT22;11222;50.872;4.312;2023-04-25T12:45:57;12.90;99.90
22112;DHT22;11222;50.872;4.312;2023-04-25T12:48:23;13.30;99.90
22112;DHT22;11222;50.872;4.312;2023-04-25T12:50:49;13.30;99.90
22112;DHT22;11222;50.872;4.312;2023-04-25T12:53:20;13.30;99.90
22112;DHT22;11222;50.872;4.312;2023-04-25T12:55:46;13.20;99.90
22112;DHT22;11222;50.872;4.312;2023-04-25T12:58:13;13.20;99.90
22112;DHT22;11222;50.872;4.312;2023-04-25T13:00:39;13.10;99.90
22112;DHT22;11222;50.872;4.312;2023-04-25T13:03:05;12.90;99.90
22112;DHT22;11222;50.872;4.312;2023-04-25T13:05:31;13.00;99.90
22112;DHT22;11222;50.872;4.312;2023-04-25T13:07:57;12.70;99.90
22112;DHT22;11222;50.872;4.312;2023-04-25T13:10:22;12.90;99.90
22112;DHT22;11222;50.872;4.312;2023-04-25T13:12:48;12.50;99.90
22112;DHT22;11222;50.872;4.312;2023-04-25T13:15:14;12.80;99.90
22112;DHT22;11222;50.872;4.312;2023-04-25T13:17:41;13.00;99.90
22112;DHT22;11222;50.872;4.312;2023-04-25T13:20:08;13.10;99.90
22112;DHT22;11222;50.872;4.312;2023-04-25T13:22:37;13.00;99.90
22112;DHT22;11222;50.872;4.312;2023-04-25T13:25:04;12.90;99.90
22112;DHT22;11222;50.872;4.312;2023-04-25T13:27:30;12.90;99.90
22112;DHT22;11222;50.872;4.312;2023-04-25T13:29:58;13.00;99.90
22112;DHT22;11222;50.872;4.312;2023-04-25T13:32:24;12.80;99.90
22112;DHT22;11222;50.872;4.312;2023-04-25T13:34:51;12.80;99.90
22112;DHT22;11222;50.872;4.312;2023-04-25T13:37:18;12.80;99.90
22112;DHT22;11222;50.872;4.312;2023-04-25T13:39:44;12.70;99.90
22112;DHT22;11222;50.872;4.312;2023-04-25T13:42:09;13.00;99.90
22112;DHT22;11222;50.872;4.312;2023-04-25T13:44:36;13.10;99.90
22112;DHT22;11222;50.872;4.312;2023-04-25T13:47:02;13.40;99.90
22112;DHT22;11222;50.872;4.312;2023-04-25T13:49:28;13.40;99.90
22112;DHT22;11222;50.872;4.312;2023-04-25T13:51:54;13.20;99.90
22112;DHT22;11222;50.872;4.312;2023-04-25T13:54:19;12.90;99.90
22112;DHT22;11222;50.872;4.312;2023-04-25T13:56:45;12.70;99.90
22112;DHT22;11222;50.872;4.312;2023-04-25T13:59:11;12.80;99.90
22112;DHT22;11222;50.872;4.312;2023-04-25T14:01:36;12.80;99.90
22112;DHT22;11222;50.872;4.312;2023-04-25T14:04:02;12.50;99.90
22112;DHT22;11222;50.872;4.312;2023-04-25T14:06:31;12.50;99.90
22112;DHT22;11222;50.872;4.312;2023-04-25T14:08:57;12.20;99.90
22112;DHT22;11222;50.872;4.312;2023-04-25T14:11:24;12.00;99.90
22112;DHT22;11222;50.872;4.312;2023-04-25T14:13:50;12.00;99.90
22112;DHT22;11222;50.872;4.312;2023-04-25T14:16:16;12.00;99.90
22112;DHT22;11222;50.872;4.312;2023-04-25T14:18:42;12.20;99.90
22112;DHT22;11222;50.872;4.312;2023-04-25T14:21:07;12.20;99.90
22112;DHT22;11222;50.872;4.312;2023-04-25T14:23:33;12.10;99.90
22112;DHT22;11222;50.872;4.312;2023-04-25T14:25:59;12.10;99.90
22112;DHT22;11222;50.872;4.312;2023-04-25T14:28:24;12.00;99.90
22112;DHT22;11222;50.872;4.312;2023-04-25T14:30:50;12.10;99.90
22112;DHT22;11222;50.872;4.312;2023-04-25T14:33:16;12.10;99.90
22112;DHT22;11222;50.872;4.312;2023-04-25T14:35:41;12.10;99.90
22112;DHT22;11222;50.872;4.312;2023-04-25T14:38:07;12.20;99.90
22112;DHT22;11222;50.872;4.312;2023-04-25T14:40:33;12.10;99.90
22112;DHT22;11222;50.872;4.312;2023-04-25T14:42:58;12.10;99.90
22112;DHT22;11222;50.872;4.312;2023-04-25T14:45:24;12.00;99.90
22112;DHT22;11222;50.872;4.312;2023-04-25T14:47:50;11.90;99.90
22112;DHT22;11222;50.872;4.312;2023-04-25T14:50:17;11.50;99.90
22112;DHT22;11222;50.872;4.312;2023-04-25T14:52:42;11.50;99.90
22112;DHT22;11222;50.872;4.312;2023-04-25T14:55:09;11.70;99.90
22112;DHT22;11222;50.872;4.312;2023-04-25T14:57:35;11.80;99.90
22112;DHT22;11222;50.872;4.312;2023-04-25T15:00:01;11.70;99.90
22112;DHT22;11222;50.872;4.312;2023-04-25T15:02:28;11.80;99.90
22112;DHT22;11222;50.872;4.312;2023-04-25T15:04:54;12.00;99.90
22112;DHT22;11222;50.872;4.312;2023-04-25T15:07:21;12.20;99.90
22112;DHT22;11222;50.872;4.312;2023-04-25T15:09:47;12.30;99.90
22112;DHT22;11222;50.872;4.312;2023-04-25T15:12:13;12.10;99.90
22112;DHT22;11222;50.872;4.312;2023-04-25T15:14:40;12.00;99.90
22112;DHT22;11222;50.872;4.312;2023-04-25T15:17:05;11.60;99.90
22112;DHT22;11222;50.872;4.312;2023-04-25T15:19:34;11.40;99.90
22112;DHT22;11222;50.872;4.312;2023-04-25T15:21:59;11.30;99.90
22112;DHT22;11222;50.872;4.312;2023-04-25T15:24:29;11.50;99.90
22112;DHT22;11222;50.872;4.312;2023-04-25T15:26:55;11.70;99.90
22112;DHT22;11222;50.872;4.312;2023-04-25T15:29:21;11.90;99.90
22112;DHT22;11222;50.872;4.312;2023-04-25T15:31:47;12.00;99.90
22112;DHT22;11222;50.872;4.312;2023-04-25T15:34:13;11.80;99.90
22112;DHT22;11222;50.872;4.312;2023-04-25T15:36:38;11.30;99.90
22112;DHT22;11222;50.872;4.312;2023-04-25T15:39:04;11.50;99.90
22112;DHT22;11222;50.872;4.312;2023-04-25T15:41:30;11.70;99.90